sensor_id;sensor_type;location;lat;lon;timestamp;pressure;altitude;pressure_sealevel;temperature;humidity
54900;BME280;40801;41.924;25.562;2022-09-09T00:06:59;99693.84;;;20.37;46.29
54900;BME280;40801;41.924;25.562;2022-09-09T00:09:30;99709.13;;;20.38;45.42
54900;BME280;40801;41.924;25.562;2022-09-09T00:12:06;99707.47;;;20.33;45.29
54900;BME280;40801;41.924;25.562;2022-09-09T00:14:55;99704.81;;;20.37;45.44
54900;BME280;40801;41.924;25.562;2022-09-09T00:20:12;99720.75;;;20.31;44.77
54900;BME280;40801;41.924;25.562;2022-09-09T00:22:41;99721.84;;;20.27;45.23
54900;BME280;40801;41.924;25.562;2022-09-09T00:25:15;99715.81;;;20.21;46.02
54900;BME280;40801;41.924;25.562;2022-09-09T00:27:48;99713.09;;;20.21;45.64
54900;BME280;40801;41.924;25.562;2022-09-09T00:30:27;99718.13;;;20.19;45.84
54900;BME280;40801;41.924;25.562;2022-09-09T00:32:55;99706.41;;;20.19;45.73
54900;BME280;40801;41.924;25.562;2022-09-09T00:37:59;99690.69;;;20.16;45.57
54900;BME280;40801;41.924;25.562;2022-09-09T00:40:33;99695.81;;;20.17;45.60
54900;BME280;40801;41.924;25.562;2022-09-09T00:43:21;99701.22;;;20.14;45.72
54900;BME280;40801;41.924;25.562;2022-09-09T00:49:17;99706.66;;;19.94;45.79
54900;BME280;40801;41.924;25.562;2022-09-09T00:54:48;99711.22;;;19.87;45.29
54900;BME280;40801;41.924;25.562;2022-09-09T00:57:32;99714.22;;;19.82;46.28
54900;BME280;40801;41.924;25.562;2022-09-09T01:00:33;99711.72;;;19.73;46.43
54900;BME280;40801;41.924;25.562;2022-09-09T01:08:39;99729.81;;;19.62;47.06
54900;BME280;40801;41.924;25.562;2022-09-09T01:11:16;99728.75;;;19.50;46.72
54900;BME280;40801;41.924;25.562;2022-09-09T01:13:45;99729.81;;;19.46;46.51
54900;BME280;40801;41.924;25.562;2022-09-09T01:16:13;99724.19;;;19.39;46.49
54900;BME280;40801;41.924;25.562;2022-09-09T01:18:44;99726.66;;;19.44;46.73
54900;BME280;40801;41.924;25.562;2022-09-09T01:26:52;99735.03;;;19.35;46.85
54900;BME280;40801;41.924;25.562;2022-09-09T01:29:21;99736.00;;;19.27;47.06
54900;BME280;40801;41.924;25.562;2022-09-09T01:31:56;99731.16;;;19.21;48.03
54900;BME280;40801;41.924;25.562;2022-09-09T01:34:25;99738.22;;;19.22;47.52
54900;BME280;40801;41.924;25.562;2022-09-09T01:36:57;99727.72;;;19.24;48.11
54900;BME280;40801;41.924;25.562;2022-09-09T01:39:25;99727.28;;;19.22;47.46
54900;BME280;40801;41.924;25.562;2022-09-09T01:41:51;99728.34;;;19.17;47.36
54900;BME280;40801;41.924;25.562;2022-09-09T01:44:19;99735.06;;;19.19;47.31
54900;BME280;40801;41.924;25.562;2022-09-09T01:46:45;99731.09;;;19.17;47.08
54900;BME280;40801;41.924;25.562;2022-09-09T01:49:10;99729.50;;;19.16;47.20
54900;BME280;40801;41.924;25.562;2022-09-09T01:51:37;99719.78;;;19.18;47.06
54900;BME280;40801;41.924;25.562;2022-09-09T01:54:04;99724.28;;;19.27;46.82
54900;BME280;40801;41.924;25.562;2022-09-09T02:07:18;99731.78;;;19.14;47.79
54900;BME280;40801;41.924;25.562;2022-09-09T02:09:47;99731.94;;;19.05;47.92
54900;BME280;40801;41.924;25.562;2022-09-09T02:12:18;99734.94;;;19.00;48.23
54900;BME280;40801;41.924;25.562;2022-09-09T02:14:52;99736.09;;;18.99;48.46
54900;BME280;40801;41.924;25.562;2022-09-09T02:17:31;99739.53;;;18.96;48.52
54900;BME280;40801;41.924;25.562;2022-09-09T02:20:10;99732.94;;;18.97;48.75
54900;BME280;40801;41.924;25.562;2022-09-09T02:22:39;99730.91;;;18.94;47.98
54900;BME280;40801;41.924;25.562;2022-09-09T02:25:08;99730.72;;;18.87;48.59
54900;BME280;40801;41.924;25.562;2022-09-09T02:27:35;99726.56;;;18.77;48.88
54900;BME280;40801;41.924;25.562;2022-09-09T02:30:03;99728.50;;;18.77;49.34
54900;BME280;40801;41.924;25.562;2022-09-09T02:32:31;99733.06;;;18.73;49.43
54900;BME280;40801;41.924;25.562;2022-09-09T02:35:04;99720.91;;;18.70;49.73
54900;BME280;40801;41.924;25.562;2022-09-09T02:37:35;99726.28;;;18.67;50.01
54900;BME280;40801;41.924;25.562;2022-09-09T02:40:06;99723.78;;;18.62;50.22
54900;BME280;40801;41.924;25.562;2022-09-09T02:42:41;99722.00;;;18.53;50.18
54900;BME280;40801;41.924;25.562;2022-09-09T02:45:10;99720.31;;;18.49;49.84
54900;BME280;40801;41.924;25.562;2022-09-09T02:47:55;99722.16;;;18.45;50.11
54900;BME280;40801;41.924;25.562;2022-09-09T02:50:33;99716.06;;;18.36;50.15
54900;BME280;40801;41.924;25.562;2022-09-09T02:53:18;99710.06;;;18.30;51.08
54900;BME280;40801;41.924;25.562;2022-09-09T02:56:04;99714.28;;;18.27;51.44
54900;BME280;40801;41.924;25.562;2022-09-09T02:58:30;99716.22;;;18.27;50.53
54900;BME280;40801;41.924;25.562;2022-09-09T03:00:56;99719.41;;;18.17;50.90
54900;BME280;40801;41.924;25.562;2022-09-09T03:03:23;99711.13;;;18.13;50.96
54900;BME280;40801;41.924;25.562;2022-09-09T03:05:49;99703.78;;;18.02;51.10
54900;BME280;40801;41.924;25.562;2022-09-09T03:08:15;99704.16;;;18.00;51.32
54900;BME280;40801;41.924;25.562;2022-09-09T03:10:40;99716.09;;;17.95;51.40
54900;BME280;40801;41.924;25.562;2022-09-09T03:13:05;99711.78;;;17.94;51.61
54900;BME280;40801;41.924;25.562;2022-09-09T03:15:32;99705.84;;;17.92;51.53
54900;BME280;40801;41.924;25.562;2022-09-09T03:17:58;99709.41;;;17.93;51.64
54900;BME280;40801;41.924;25.562;2022-09-09T03:20:25;99708.81;;;17.87;51.89
54900;BME280;40801;41.924;25.562;2022-09-09T03:22:52;99705.66;;;17.85;52.06
54900;BME280;40801;41.924;25.562;2022-09-09T03:25:18;99704.41;;;17.83;52.15
54900;BME280;40801;41.924;25.562;2022-09-09T03:27:44;99701.91;;;17.78;52.39
54900;BME280;40801;41.924;25.562;2022-09-09T03:30:10;99706.94;;;17.76;52.24
54900;BME280;40801;41.924;25.562;2022-09-09T03:32:36;99707.72;;;17.76;52.54
54900;BME280;40801;41.924;25.562;2022-09-09T03:35:01;99708.75;;;17.72;52.72
54900;BME280;40801;41.924;25.562;2022-09-09T03:37:26;99711.69;;;17.67;52.99
54900;BME280;40801;41.924;25.562;2022-09-09T03:39:52;99702.59;;;17.62;53.18
54900;BME280;40801;41.924;25.562;2022-09-09T03:42:19;99711.47;;;17.59;53.27
54900;BME280;40801;41.924;25.562;2022-09-09T03:44:46;99702.03;;;17.57;53.38
54900;BME280;40801;41.924;25.562;2022-09-09T03:47:18;99713.75;;;17.57;53.39
54900;BME280;40801;41.924;25.562;2022-09-09T03:49:45;99731.47;;;17.51;53.41
54900;BME280;40801;41.924;25.562;2022-09-09T03:52:11;99735.13;;;17.43;53.83
54900;BME280;40801;41.924;25.562;2022-09-09T03:54:37;99731.50;;;17.39;53.76
54900;BME280;40801;41.924;25.562;2022-09-09T03:57:03;99724.78;;;17.37;53.92
54900;BME280;40801;41.924;25.562;2022-09-09T03:59:29;99728.78;;;17.39;53.85
54900;BME280;40801;41.924;25.562;2022-09-09T04:01:55;99727.19;;;17.38;53.86
54900;BME280;40801;41.924;25.562;2022-09-09T04:04:22;99738.53;;;17.40;54.11
54900;BME280;40801;41.924;25.562;2022-09-09T04:06:47;99738.88;;;17.39;54.30
54900;BME280;40801;41.924;25.562;2022-09-09T04:09:16;99741.25;;;17.40;54.31
54900;BME280;40801;41.924;25.562;2022-09-09T04:11:41;99736.72;;;17.44;54.10
54900;BME280;40801;41.924;25.562;2022-09-09T04:14:07;99741.69;;;17.54;53.84
54900;BME280;40801;41.924;25.562;2022-09-09T04:16:33;99748.41;;;17.57;54.24
54900;BME280;40801;41.924;25.562;2022-09-09T04:18:59;99741.25;;;17.64;53.89
54900;BME280;40801;41.924;25.562;2022-09-09T04:21:25;99746.22;;;17.62;54.02
54900;BME280;40801;41.924;25.562;2022-09-09T04:23:51;99744.19;;;17.59;54.15
54900;BME280;40801;41.924;25.562;2022-09-09T04:26:17;99756.56;;;17.57;54.66
54900;BME280;40801;41.924;25.562;2022-09-09T04:28:42;99756.69;;;17.60;54.35
54900;BME280;40801;41.924;25.562;2022-09-09T04:31:14;99748.94;;;17.62;54.75
54900;BME280;40801;41.924;25.562;2022-09-09T04:33:40;99756.97;;;17.68;54.40
54900;BME280;40801;41.924;25.562;2022-09-09T04:36:05;99758.22;;;17.70;54.43
54900;BME280;40801;41.924;25.562;2022-09-09T04:38:31;99753.88;;;17.69;54.45
54900;BME280;40801;41.924;25.562;2022-09-09T04:40:57;99752.41;;;17.72;54.45
54900;BME280;40801;41.924;25.562;2022-09-09T04:43:22;99752.97;;;17.77;54.48
54900;BME280;40801;41.924;25.562;2022-09-09T04:45:50;99756.34;;;17.86;54.36
54900;BME280;40801;41.924;25.562;2022-09-09T04:48:16;99758.72;;;17.88;54.54
54900;BME280;40801;41.924;25.562;2022-09-09T04:50:42;99753.06;;;17.93;54.49
54900;BME280;40801;41.924;25.562;2022-09-09T04:53:07;99760.66;;;18.00;54.40
54900;BME280;40801;41.924;25.562;2022-09-09T04:55:34;99749.94;;;18.07;54.28
54900;BME280;40801;41.924;25.562;2022-09-09T04:58:07;99764.47;;;18.11;55.01
54900;BME280;40801;41.924;25.562;2022-09-09T05:00:34;99763.19;;;18.20;54.21
54900;BME280;40801;41.924;25.562;2022-09-09T05:03:04;99768.66;;;18.20;54.40
54900;BME280;40801;41.924;25.562;2022-09-09T05:05:31;99767.66;;;18.25;54.37
54900;BME280;40801;41.924;25.562;2022-09-09T05:08:03;99763.81;;;18.42;53.75
54900;BME280;40801;41.924;25.562;2022-09-09T05:10:30;99753.28;;;18.56;53.06
54900;BME280;40801;41.924;25.562;2022-09-09T05:12:55;99746.19;;;18.67;53.13
54900;BME280;40801;41.924;25.562;2022-09-09T05:15:21;99750.78;;;18.79;52.97
54900;BME280;40801;41.924;25.562;2022-09-09T05:17:46;99746.31;;;18.86;53.07
54900;BME280;40801;41.924;25.562;2022-09-09T05:20:12;99739.19;;;18.98;52.93
54900;BME280;40801;41.924;25.562;2022-09-09T05:22:37;99745.91;;;19.16;52.60
54900;BME280;40801;41.924;25.562;2022-09-09T05:25:03;99738.13;;;19.34;52.34
54900;BME280;40801;41.924;25.562;2022-09-09T05:27:29;99746.22;;;19.62;52.26
54900;BME280;40801;41.924;25.562;2022-09-09T05:29:56;99750.25;;;19.84;51.99
54900;BME280;40801;41.924;25.562;2022-09-09T05:32:22;99749.84;;;20.01;52.13
54900;BME280;40801;41.924;25.562;2022-09-09T05:34:48;99746.25;;;20.16;52.12
54900;BME280;40801;41.924;25.562;2022-09-09T05:37:13;99746.84;;;20.45;51.73
54900;BME280;40801;41.924;25.562;2022-09-09T05:39:38;99742.16;;;20.64;50.91
54900;BME280;40801;41.924;25.562;2022-09-09T05:42:04;99748.03;;;20.86;50.83
54900;BME280;40801;41.924;25.562;2022-09-09T05:44:30;99744.13;;;21.10;50.38
54900;BME280;40801;41.924;25.562;2022-09-09T05:46:55;99753.09;;;21.29;49.82
54900;BME280;40801;41.924;25.562;2022-09-09T05:49:22;99753.19;;;21.59;48.93
54900;BME280;40801;41.924;25.562;2022-09-09T05:51:47;99754.69;;;21.83;48.75
54900;BME280;40801;41.924;25.562;2022-09-09T05:54:13;99755.59;;;21.91;48.44
54900;BME280;40801;41.924;25.562;2022-09-09T05:56:41;99757.72;;;22.31;47.67
54900;BME280;40801;41.924;25.562;2022-09-09T05:59:06;99750.25;;;22.65;46.56
54900;BME280;40801;41.924;25.562;2022-09-09T06:01:34;99744.59;;;22.84;46.21
54900;BME280;40801;41.924;25.562;2022-09-09T06:04:00;99747.91;;;23.04;46.03
54900;BME280;40801;41.924;25.562;2022-09-09T06:06:29;99746.47;;;23.17;45.59
54900;BME280;40801;41.924;25.562;2022-09-09T06:08:56;99747.81;;;23.41;45.63
54900;BME280;40801;41.924;25.562;2022-09-09T06:11:29;99747.69;;;23.75;44.18
54900;BME280;40801;41.924;25.562;2022-09-09T06:14:01;99748.19;;;23.95;44.17
54900;BME280;40801;41.924;25.562;2022-09-09T06:16:28;99761.03;;;24.38;43.27
54900;BME280;40801;41.924;25.562;2022-09-09T06:18:55;99762.69;;;24.64;42.36
54900;BME280;40801;41.924;25.562;2022-09-09T06:21:32;99759.56;;;24.77;41.58
54900;BME280;40801;41.924;25.562;2022-09-09T06:23:59;99764.00;;;25.20;41.52
54900;BME280;40801;41.924;25.562;2022-09-09T06:26:27;99764.78;;;25.24;41.25
54900;BME280;40801;41.924;25.562;2022-09-09T06:28:55;99763.97;;;25.59;40.95
54900;BME280;40801;41.924;25.562;2022-09-09T06:31:24;99763.94;;;25.88;40.63
54900;BME280;40801;41.924;25.562;2022-09-09T06:33:52;99759.19;;;26.03;40.47
54900;BME280;40801;41.924;25.562;2022-09-09T06:36:22;99753.94;;;26.33;39.00
54900;BME280;40801;41.924;25.562;2022-09-09T06:38:48;99759.41;;;26.47;38.90
54900;BME280;40801;41.924;25.562;2022-09-09T06:41:16;99747.25;;;27.00;37.96
54900;BME280;40801;41.924;25.562;2022-09-09T06:43:43;99751.88;;;27.14;37.62
54900;BME280;40801;41.924;25.562;2022-09-09T06:46:11;99752.91;;;27.34;37.39
54900;BME280;40801;41.924;25.562;2022-09-09T06:48:38;99751.78;;;27.73;36.82
54900;BME280;40801;41.924;25.562;2022-09-09T06:51:08;99747.44;;;27.72;35.93
54900;BME280;40801;41.924;25.562;2022-09-09T06:53:35;99750.44;;;27.88;35.83
54900;BME280;40801;41.924;25.562;2022-09-09T06:58:42;99736.34;;;28.10;34.64
54900;BME280;40801;41.924;25.562;2022-09-09T07:01:11;99737.41;;;28.19;35.00
54900;BME280;40801;41.924;25.562;2022-09-09T07:03:38;99735.28;;;28.30;34.89
54900;BME280;40801;41.924;25.562;2022-09-09T07:06:04;99734.22;;;28.51;34.55
54900;BME280;40801;41.924;25.562;2022-09-09T07:08:30;99744.06;;;28.86;33.94
54900;BME280;40801;41.924;25.562;2022-09-09T07:11:06;99738.41;;;28.66;33.90
54900;BME280;40801;41.924;25.562;2022-09-09T07:13:32;99744.75;;;28.94;33.35
54900;BME280;40801;41.924;25.562;2022-09-09T07:16:09;99736.91;;;29.12;32.75
54900;BME280;40801;41.924;25.562;2022-09-09T07:18:35;99736.78;;;29.19;33.54
54900;BME280;40801;41.924;25.562;2022-09-09T07:21:02;99739.09;;;29.71;32.45
54900;BME280;40801;41.924;25.562;2022-09-09T07:23:29;99741.09;;;29.90;31.84
54900;BME280;40801;41.924;25.562;2022-09-09T07:25:55;99744.06;;;30.23;31.82
54900;BME280;40801;41.924;25.562;2022-09-09T07:28:21;99738.03;;;30.44;31.68
54900;BME280;40801;41.924;25.562;2022-09-09T07:30:58;99741.69;;;30.77;30.73
54900;BME280;40801;41.924;25.562;2022-09-09T07:33:25;99735.78;;;30.56;31.37
54900;BME280;40801;41.924;25.562;2022-09-09T07:35:51;99750.84;;;30.58;31.40
54900;BME280;40801;41.924;25.562;2022-09-09T07:38:17;99738.47;;;30.79;31.08
54900;BME280;40801;41.924;25.562;2022-09-09T07:40:44;99734.00;;;31.34;30.70
54900;BME280;40801;41.924;25.562;2022-09-09T07:43:09;99737.28;;;31.45;30.45
54900;BME280;40801;41.924;25.562;2022-09-09T07:45:36;99747.47;;;31.35;30.63
54900;BME280;40801;41.924;25.562;2022-09-09T07:48:02;99739.59;;;31.63;30.28
54900;BME280;40801;41.924;25.562;2022-09-09T07:50:27;99743.94;;;31.64;30.43
54900;BME280;40801;41.924;25.562;2022-09-09T07:52:53;99749.81;;;32.27;29.56
54900;BME280;40801;41.924;25.562;2022-09-09T07:55:20;99752.97;;;32.55;28.78
54900;BME280;40801;41.924;25.562;2022-09-09T07:57:45;99752.97;;;32.55;28.83
54900;BME280;40801;41.924;25.562;2022-09-09T08:00:11;99748.81;;;32.34;29.50
54900;BME280;40801;41.924;25.562;2022-09-09T08:02:37;99746.31;;;33.03;28.41
54900;BME280;40801;41.924;25.562;2022-09-09T08:05:03;99755.75;;;33.18;28.45
54900;BME280;40801;41.924;25.562;2022-09-09T08:07:28;99748.03;;;33.22;28.17
54900;BME280;40801;41.924;25.562;2022-09-09T08:09:54;99745.00;;;33.55;27.88
54900;BME280;40801;41.924;25.562;2022-09-09T08:12:21;99741.59;;;34.16;26.88
54900;BME280;40801;41.924;25.562;2022-09-09T08:14:46;99722.41;;;33.84;26.81
54900;BME280;40801;41.924;25.562;2022-09-09T08:17:12;99728.44;;;34.57;26.47
54900;BME280;40801;41.924;25.562;2022-09-09T08:19:38;99723.16;;;34.28;26.17
54900;BME280;40801;41.924;25.562;2022-09-09T08:22:03;99720.19;;;34.32;26.44
54900;BME280;40801;41.924;25.562;2022-09-09T08:24:29;99712.59;;;34.63;26.56
54900;BME280;40801;41.924;25.562;2022-09-09T08:26:54;99717.59;;;35.08;25.85
54900;BME280;40801;41.924;25.562;2022-09-09T08:29:22;99700.78;;;34.99;26.21
54900;BME280;40801;41.924;25.562;2022-09-09T08:31:50;99696.31;;;35.66;24.95
54900;BME280;40801;41.924;25.562;2022-09-09T08:34:17;99691.00;;;35.68;25.03
54900;BME280;40801;41.924;25.562;2022-09-09T08:36:45;99701.00;;;35.60;24.52
54900;BME280;40801;41.924;25.562;2022-09-09T08:39:17;99691.66;;;35.35;25.16
54900;BME280;40801;41.924;25.562;2022-09-09T08:47:51;99673.09;;;35.65;24.92
54900;BME280;40801;41.924;25.562;2022-09-09T08:50:28;99673.34;;;36.04;23.96
54900;BME280;40801;41.924;25.562;2022-09-09T08:53:20;99669.13;;;36.09;24.14
54900;BME280;40801;41.924;25.562;2022-09-09T08:58:31;99652.97;;;36.70;24.21
54900;BME280;40801;41.924;25.562;2022-09-09T09:01:09;99662.88;;;36.89;23.52
54900;BME280;40801;41.924;25.562;2022-09-09T09:03:56;99660.28;;;37.24;22.90
54900;BME280;40801;41.924;25.562;2022-09-09T09:11:57;99644.13;;;37.72;22.80
54900;BME280;40801;41.924;25.562;2022-09-09T09:14:29;99641.13;;;38.20;21.30
54900;BME280;40801;41.924;25.562;2022-09-09T09:17:05;99636.25;;;37.76;21.82
54900;BME280;40801;41.924;25.562;2022-09-09T09:19:34;99629.38;;;37.77;21.62
54900;BME280;40801;41.924;25.562;2022-09-09T09:27:33;99618.28;;;38.03;21.63
54900;BME280;40801;41.924;25.562;2022-09-09T09:30:05;99624.25;;;38.40;21.68
54900;BME280;40801;41.924;25.562;2022-09-09T09:32:33;99613.56;;;38.80;21.30
54900;BME280;40801;41.924;25.562;2022-09-09T09:35:01;99608.50;;;38.84;21.10
54900;BME280;40801;41.924;25.562;2022-09-09T09:37:32;99606.56;;;38.95;21.03
54900;BME280;40801;41.924;25.562;2022-09-09T09:40:17;99602.75;;;39.39;20.44
54900;BME280;40801;41.924;25.562;2022-09-09T09:42:52;99606.41;;;39.71;19.75
54900;BME280;40801;41.924;25.562;2022-09-09T09:45:28;99603.72;;;39.88;18.56
54900;BME280;40801;41.924;25.562;2022-09-09T09:48:13;99604.97;;;39.55;19.62
54900;BME280;40801;41.924;25.562;2022-09-09T09:53:27;99593.66;;;39.81;18.63
54900;BME280;40801;41.924;25.562;2022-09-09T09:55:57;99582.31;;;40.07;19.51
54900;BME280;40801;41.924;25.562;2022-09-09T09:58:25;99585.00;;;40.65;18.44
54900;BME280;40801;41.924;25.562;2022-09-09T10:00:53;99579.75;;;40.41;18.74
54900;BME280;40801;41.924;25.562;2022-09-09T10:03:25;99587.44;;;40.40;18.42
54900;BME280;40801;41.924;25.562;2022-09-09T10:05:51;99571.50;;;40.37;18.28
54900;BME280;40801;41.924;25.562;2022-09-09T10:08:17;99566.75;;;40.60;18.62
54900;BME280;40801;41.924;25.562;2022-09-09T10:13:20;99567.47;;;41.20;17.28
54900;BME280;40801;41.924;25.562;2022-09-09T10:16:05;99569.88;;;41.38;16.87
54900;BME280;40801;41.924;25.562;2022-09-09T10:26:35;99560.78;;;41.12;16.95
54900;BME280;40801;41.924;25.562;2022-09-09T10:37:11;99540.03;;;41.82;16.45
54900;BME280;40801;41.924;25.562;2022-09-09T10:39:39;99548.41;;;42.49;15.90
54900;BME280;40801;41.924;25.562;2022-09-09T10:42:16;99543.94;;;42.71;15.47
54900;BME280;40801;41.924;25.562;2022-09-09T10:55:52;99518.63;;;42.84;15.60
54900;BME280;40801;41.924;25.562;2022-09-09T10:58:27;99514.94;;;43.41;14.93
54900;BME280;40801;41.924;25.562;2022-09-09T11:00:57;99515.97;;;42.97;14.97
54900;BME280;40801;41.924;25.562;2022-09-09T11:03:27;99511.56;;;43.02;15.51
54900;BME280;40801;41.924;25.562;2022-09-09T11:06:06;99504.56;;;42.61;15.53
54900;BME280;40801;41.924;25.562;2022-09-09T11:08:38;99508.19;;;43.09;14.95
54900;BME280;40801;41.924;25.562;2022-09-09T11:13:37;99495.41;;;42.85;14.74
54900;BME280;40801;41.924;25.562;2022-09-09T11:19:04;99475.69;;;43.40;15.44
54900;BME280;40801;41.924;25.562;2022-09-09T11:21:40;99473.75;;;43.53;14.63
54900;BME280;40801;41.924;25.562;2022-09-09T11:24:37;99466.25;;;43.56;14.85
54900;BME280;40801;41.924;25.562;2022-09-09T11:27:15;99468.50;;;43.33;15.45
54900;BME280;40801;41.924;25.562;2022-09-09T11:29:45;99456.06;;;43.96;14.92
54900;BME280;40801;41.924;25.562;2022-09-09T11:40:28;99458.81;;;44.26;14.40
54900;BME280;40801;41.924;25.562;2022-09-09T11:43:25;99457.06;;;44.42;14.33
54900;BME280;40801;41.924;25.562;2022-09-09T11:45:54;99450.19;;;44.56;14.31
54900;BME280;40801;41.924;25.562;2022-09-09T11:48:26;99451.72;;;45.08;13.36
54900;BME280;40801;41.924;25.562;2022-09-09T11:51:10;99447.53;;;44.96;13.43
54900;BME280;40801;41.924;25.562;2022-09-09T11:56:51;99438.47;;;44.41;14.19
54900;BME280;40801;41.924;25.562;2022-09-09T11:59:27;99432.59;;;44.14;14.06
54900;BME280;40801;41.924;25.562;2022-09-09T12:02:24;99426.47;;;44.29;13.92
54900;BME280;40801;41.924;25.562;2022-09-09T12:07:33;99420.97;;;44.56;13.68
54900;BME280;40801;41.924;25.562;2022-09-09T12:12:35;99430.19;;;44.62;14.38
54900;BME280;40801;41.924;25.562;2022-09-09T12:17:42;99395.25;;;44.42;14.34
54900;BME280;40801;41.924;25.562;2022-09-09T12:28:20;99391.31;;;44.83;14.01
54900;BME280;40801;41.924;25.562;2022-09-09T12:33:51;99381.41;;;44.71;13.66
54900;BME280;40801;41.924;25.562;2022-09-09T12:36:20;99378.88;;;44.67;14.40
54900;BME280;40801;41.924;25.562;2022-09-09T12:38:47;99376.72;;;45.05;13.85
54900;BME280;40801;41.924;25.562;2022-09-09T12:41:22;99375.69;;;45.35;14.06
54900;BME280;40801;41.924;25.562;2022-09-09T12:43:48;99361.28;;;45.46;13.43
54900;BME280;40801;41.924;25.562;2022-09-09T12:46:36;99365.75;;;44.64;14.38
54900;BME280;40801;41.924;25.562;2022-09-09T12:49:03;99355.22;;;44.59;14.27
54900;BME280;40801;41.924;25.562;2022-09-09T12:51:31;99346.59;;;44.65;14.47
54900;BME280;40801;41.924;25.562;2022-09-09T12:53:58;99349.28;;;44.38;14.33
54900;BME280;40801;41.924;25.562;2022-09-09T12:56:30;99346.28;;;44.82;14.79
54900;BME280;40801;41.924;25.562;2022-09-09T12:58:58;99338.47;;;44.56;14.29
54900;BME280;40801;41.924;25.562;2022-09-09T13:01:28;99333.63;;;44.83;13.91
54900;BME280;40801;41.924;25.562;2022-09-09T13:03:55;99320.88;;;44.89;14.01
54900;BME280;40801;41.924;25.562;2022-09-09T13:06:39;99315.50;;;44.54;14.01
54900;BME280;40801;41.924;25.562;2022-09-09T13:09:04;99320.56;;;44.23;14.42
54900;BME280;40801;41.924;25.562;2022-09-09T13:11:39;99313.09;;;44.58;14.33
54900;BME280;40801;41.924;25.562;2022-09-09T13:14:19;99308.94;;;45.04;13.96
54900;BME280;40801;41.924;25.562;2022-09-09T13:16:58;99313.22;;;44.97;14.13
54900;BME280;40801;41.924;25.562;2022-09-09T13:19:23;99304.03;;;44.72;14.85
54900;BME280;40801;41.924;25.562;2022-09-09T13:21:53;99308.97;;;44.72;14.83
54900;BME280;40801;41.924;25.562;2022-09-09T13:24:33;99309.47;;;44.57;14.11
54900;BME280;40801;41.924;25.562;2022-09-09T13:27:05;99305.00;;;44.43;14.01
54900;BME280;40801;41.924;25.562;2022-09-09T13:29:52;99304.88;;;44.54;14.37
54900;BME280;40801;41.924;25.562;2022-09-09T13:32:20;99294.25;;;44.55;14.59
54900;BME280;40801;41.924;25.562;2022-09-09T13:35:22;99301.84;;;44.65;14.43
54900;BME280;40801;41.924;25.562;2022-09-09T13:37:48;99300.84;;;44.63;14.52
54900;BME280;40801;41.924;25.562;2022-09-09T13:40:18;99289.63;;;44.52;14.74
54900;BME280;40801;41.924;25.562;2022-09-09T13:42:44;99285.31;;;44.45;14.38
54900;BME280;40801;41.924;25.562;2022-09-09T13:45:18;99289.03;;;44.40;14.88
54900;BME280;40801;41.924;25.562;2022-09-09T13:47:45;99291.31;;;44.09;14.83
54900;BME280;40801;41.924;25.562;2022-09-09T13:50:28;99297.13;;;43.79;15.57
54900;BME280;40801;41.924;25.562;2022-09-09T13:52:56;99295.13;;;43.50;15.42
54900;BME280;40801;41.924;25.562;2022-09-09T13:55:25;99294.81;;;43.53;14.72
54900;BME280;40801;41.924;25.562;2022-09-09T13:57:56;99291.50;;;43.49;15.33
54900;BME280;40801;41.924;25.562;2022-09-09T14:00:22;99291.41;;;43.12;15.75
54900;BME280;40801;41.924;25.562;2022-09-09T14:02:49;99287.91;;;43.24;15.90
54900;BME280;40801;41.924;25.562;2022-09-09T14:05:15;99273.22;;;43.20;16.42
54900;BME280;40801;41.924;25.562;2022-09-09T14:07:42;99285.28;;;43.26;16.07
54900;BME280;40801;41.924;25.562;2022-09-09T14:10:08;99281.69;;;43.26;16.41
54900;BME280;40801;41.924;25.562;2022-09-09T14:12:34;99268.09;;;42.94;16.60
54900;BME280;40801;41.924;25.562;2022-09-09T14:15:01;99274.31;;;43.17;15.58
54900;BME280;40801;41.924;25.562;2022-09-09T14:17:27;99266.88;;;42.84;15.91
54900;BME280;40801;41.924;25.562;2022-09-09T14:19:56;99265.63;;;42.80;16.21
54900;BME280;40801;41.924;25.562;2022-09-09T14:22:22;99267.66;;;42.79;16.36
54900;BME280;40801;41.924;25.562;2022-09-09T14:24:48;99274.09;;;42.55;16.14
54900;BME280;40801;41.924;25.562;2022-09-09T14:27:14;99267.06;;;42.62;16.57
54900;BME280;40801;41.924;25.562;2022-09-09T14:29:40;99267.63;;;42.19;16.78
54900;BME280;40801;41.924;25.562;2022-09-09T14:32:05;99267.25;;;41.93;17.12
54900;BME280;40801;41.924;25.562;2022-09-09T14:34:30;99250.50;;;41.20;17.55
54900;BME280;40801;41.924;25.562;2022-09-09T14:36:57;99263.88;;;41.36;17.41
54900;BME280;40801;41.924;25.562;2022-09-09T14:39:23;99254.13;;;41.15;17.89
54900;BME280;40801;41.924;25.562;2022-09-09T14:41:48;99262.31;;;41.41;17.75
54900;BME280;40801;41.924;25.562;2022-09-09T14:44:14;99255.19;;;41.06;17.95
54900;BME280;40801;41.924;25.562;2022-09-09T14:46:41;99253.13;;;41.07;18.15
54900;BME280;40801;41.924;25.562;2022-09-09T14:49:07;99253.91;;;40.96;18.34
54900;BME280;40801;41.924;25.562;2022-09-09T14:51:33;99243.34;;;40.74;18.16
54900;BME280;40801;41.924;25.562;2022-09-09T14:53:59;99237.47;;;40.55;18.64
54900;BME280;40801;41.924;25.562;2022-09-09T14:56:27;99233.13;;;40.49;19.38
54900;BME280;40801;41.924;25.562;2022-09-09T14:58:53;99231.25;;;40.12;18.33
54900;BME280;40801;41.924;25.562;2022-09-09T15:01:19;99236.91;;;40.07;18.89
54900;BME280;40801;41.924;25.562;2022-09-09T15:03:50;99238.16;;;39.94;19.28
54900;BME280;40801;41.924;25.562;2022-09-09T15:06:17;99234.13;;;39.53;19.15
54900;BME280;40801;41.924;25.562;2022-09-09T15:08:45;99240.13;;;39.23;20.14
54900;BME280;40801;41.924;25.562;2022-09-09T15:11:12;99245.34;;;38.99;19.53
54900;BME280;40801;41.924;25.562;2022-09-09T15:13:39;99246.84;;;38.31;20.18